sensor_id;sensor_type;location;lat;lon;timestamp;P1;durP1;ratioP1;P2;durP2;ratioP2
19535;SDS011;9913;51.168;4.124;2023-03-23T00:01:29;4.27;;;2.57;;
19535;SDS011;9913;51.168;4.124;2023-03-23T00:03:58;6.30;;;2.63;;
19535;SDS011;9913;51.168;4.124;2023-03-23T00:06:27;4.10;;;2.50;;
19535;SDS011;9913;51.168;4.124;2023-03-23T00:09:01;3.73;;;2.53;;
19535;SDS011;9913;51.168;4.124;2023-03-23T00:11:30;5.47;;;3.07;;
19535;SDS011;9913;51.168;4.124;2023-03-23T00:13:59;5.10;;;2.63;;
19535;SDS011;9913;51.168;4.124;2023-03-23T00:16:28;3.43;;;2.60;;
19535;SDS011;9913;51.168;4.124;2023-03-23T00:18:58;4.33;;;2.50;;
19535;SDS011;9913;51.168;4.124;2023-03-23T00:21:27;4.63;;;2.67;;
19535;SDS011;9913;51.168;4.124;2023-03-23T00:24:02;4.87;;;2.60;;
19535;SDS011;9913;51.168;4.124;2023-03-23T00:26:31;4.87;;;2.87;;
19535;SDS011;9913;51.168;4.124;2023-03-23T00:29:00;3.63;;;2.67;;
19535;SDS011;9913;51.168;4.124;2023-03-23T00:31:29;5.60;;;2.53;;
19535;SDS011;9913;51.168;4.124;2023-03-23T00:33:58;4.03;;;2.60;;
19535;SDS011;9913;51.168;4.124;2023-03-23T00:36:29;4.60;;;2.73;;
19535;SDS011;9913;51.168;4.124;2023-03-23T00:38:57;4.03;;;2.50;;
19535;SDS011;9913;51.168;4.124;2023-03-23T00:41:26;4.30;;;2.80;;
19535;SDS011;9913;51.168;4.124;2023-03-23T00:43:54;4.43;;;2.40;;
19535;SDS011;9913;51.168;4.124;2023-03-23T00:46:23;4.70;;;2.80;;
19535;SDS011;9913;51.168;4.124;2023-03-23T00:48:50;4.97;;;2.60;;
19535;SDS011;9913;51.168;4.124;2023-03-23T00:51:19;5.33;;;2.90;;
19535;SDS011;9913;51.168;4.124;2023-03-23T00:53:47;3.47;;;2.43;;
19535;SDS011;9913;51.168;4.124;2023-03-23T00:56:14;4.33;;;3.07;;
19535;SDS011;9913;51.168;4.124;2023-03-23T00:58:42;4.27;;;2.83;;
19535;SDS011;9913;51.168;4.124;2023-03-23T01:01:11;4.20;;;2.97;;
19535;SDS011;9913;51.168;4.124;2023-03-23T01:03:39;4.17;;;2.50;;
19535;SDS011;9913;51.168;4.124;2023-03-23T01:06:07;5.20;;;2.60;;
19535;SDS011;9913;51.168;4.124;2023-03-23T01:08:41;3.77;;;2.33;;
19535;SDS011;9913;51.168;4.124;2023-03-23T01:11:12;4.97;;;2.70;;
19535;SDS011;9913;51.168;4.124;2023-03-23T01:13:40;5.70;;;2.30;;
19535;SDS011;9913;51.168;4.124;2023-03-23T01:16:10;4.10;;;2.20;;
19535;SDS011;9913;51.168;4.124;2023-03-23T01:18:38;3.60;;;2.30;;
19535;SDS011;9913;51.168;4.124;2023-03-23T01:21:06;4.23;;;2.57;;
19535;SDS011;9913;51.168;4.124;2023-03-23T01:23:35;2.33;;;1.93;;
19535;SDS011;9913;51.168;4.124;2023-03-23T01:26:04;2.90;;;1.97;;
19535;SDS011;9913;51.168;4.124;2023-03-23T01:28:33;3.93;;;1.70;;
19535;SDS011;9913;51.168;4.124;2023-03-23T01:31:02;3.77;;;2.07;;
19535;SDS011;9913;51.168;4.124;2023-03-23T01:33:31;3.33;;;1.73;;
19535;SDS011;9913;51.168;4.124;2023-03-23T01:36:02;5.00;;;1.70;;
19535;SDS011;9913;51.168;4.124;2023-03-23T01:38:30;3.00;;;2.00;;
19535;SDS011;9913;51.168;4.124;2023-03-23T01:40:57;3.07;;;2.20;;
19535;SDS011;9913;51.168;4.124;2023-03-23T01:43:25;4.40;;;1.80;;
19535;SDS011;9913;51.168;4.124;2023-03-23T01:45:52;3.40;;;2.00;;
19535;SDS011;9913;51.168;4.124;2023-03-23T01:48:22;2.50;;;1.70;;
19535;SDS011;9913;51.168;4.124;2023-03-23T01:50:53;2.10;;;1.73;;
19535;SDS011;9913;51.168;4.124;2023-03-23T01:53:26;3.47;;;2.20;;
19535;SDS011;9913;51.168;4.124;2023-03-23T01:55:58;2.60;;;1.97;;
19535;SDS011;9913;51.168;4.124;2023-03-23T01:58:27;3.90;;;2.00;;
19535;SDS011;9913;51.168;4.124;2023-03-23T02:00:58;2.10;;;1.80;;
19535;SDS011;9913;51.168;4.124;2023-03-23T02:03:31;3.80;;;1.90;;
19535;SDS011;9913;51.168;4.124;2023-03-23T02:05:59;2.53;;;1.83;;
19535;SDS011;9913;51.168;4.124;2023-03-23T02:08:38;2.50;;;1.90;;
19535;SDS011;9913;51.168;4.124;2023-03-23T02:11:11;2.83;;;1.80;;
19535;SDS011;9913;51.168;4.124;2023-03-23T02:13:40;4.37;;;1.97;;
19535;SDS011;9913;51.168;4.124;2023-03-23T02:16:09;4.50;;;1.63;;
19535;SDS011;9913;51.168;4.124;2023-03-23T02:18:49;4.60;;;1.97;;
19535;SDS011;9913;51.168;4.124;2023-03-23T02:27:17;4.87;;;1.50;;
19535;SDS011;9913;51.168;4.124;2023-03-23T02:29:57;3.83;;;1.70;;
19535;SDS011;9913;51.168;4.124;2023-03-23T02:32:46;2.77;;;1.40;;
19535;SDS011;9913;51.168;4.124;2023-03-23T02:35:35;3.17;;;1.70;;
19535;SDS011;9913;51.168;4.124;2023-03-23T02:38:06;3.73;;;1.90;;
19535;SDS011;9913;51.168;4.124;2023-03-23T02:40:41;5.97;;;2.00;;
19535;SDS011;9913;51.168;4.124;2023-03-23T02:43:12;3.23;;;1.47;;
19535;SDS011;9913;51.168;4.124;2023-03-23T02:45:42;3.80;;;1.73;;
19535;SDS011;9913;51.168;4.124;2023-03-23T02:48:11;3.17;;;1.73;;
19535;SDS011;9913;51.168;4.124;2023-03-23T02:50:43;4.50;;;1.30;;
19535;SDS011;9913;51.168;4.124;2023-03-23T02:53:14;6.00;;;1.80;;
19535;SDS011;9913;51.168;4.124;2023-03-23T02:55:45;5.83;;;1.40;;
19535;SDS011;9913;51.168;4.124;2023-03-23T02:58:18;6.07;;;1.70;;
19535;SDS011;9913;51.168;4.124;2023-03-23T03:00:46;5.77;;;1.43;;
19535;SDS011;9913;51.168;4.124;2023-03-23T03:03:16;5.23;;;1.40;;
19535;SDS011;9913;51.168;4.124;2023-03-23T03:05:50;8.43;;;1.80;;
19535;SDS011;9913;51.168;4.124;2023-03-23T03:08:26;3.97;;;1.67;;
19535;SDS011;9913;51.168;4.124;2023-03-23T03:11:01;4.60;;;1.53;;
19535;SDS011;9913;51.168;4.124;2023-03-23T03:13:34;2.97;;;1.20;;
19535;SDS011;9913;51.168;4.124;2023-03-23T03:16:14;2.73;;;1.37;;
19535;SDS011;9913;51.168;4.124;2023-03-23T03:18:51;5.03;;;1.73;;
19535;SDS011;9913;51.168;4.124;2023-03-23T03:21:25;5.13;;;1.67;;
19535;SDS011;9913;51.168;4.124;2023-03-23T03:23:58;3.30;;;1.47;;
19535;SDS011;9913;51.168;4.124;2023-03-23T03:26:28;3.37;;;1.30;;
19535;SDS011;9913;51.168;4.124;2023-03-23T03:29:13;4.97;;;1.73;;
19535;SDS011;9913;51.168;4.124;2023-03-23T03:31:45;7.63;;;1.67;;
19535;SDS011;9913;51.168;4.124;2023-03-23T03:34:15;6.17;;;1.50;;
19535;SDS011;9913;51.168;4.124;2023-03-23T03:36:48;5.83;;;1.93;;
19535;SDS011;9913;51.168;4.124;2023-03-23T03:39:17;4.20;;;1.57;;
19535;SDS011;9913;51.168;4.124;2023-03-23T03:41:46;5.57;;;1.40;;
19535;SDS011;9913;51.168;4.124;2023-03-23T03:44:15;4.27;;;1.70;;
19535;SDS011;9913;51.168;4.124;2023-03-23T03:46:42;4.43;;;1.20;;
19535;SDS011;9913;51.168;4.124;2023-03-23T03:49:11;3.27;;;1.70;;
19535;SDS011;9913;51.168;4.124;2023-03-23T03:51:40;6.23;;;1.77;;
19535;SDS011;9913;51.168;4.124;2023-03-23T03:54:17;3.93;;;1.87;;
19535;SDS011;9913;51.168;4.124;2023-03-23T03:56:45;4.30;;;1.50;;
19535;SDS011;9913;51.168;4.124;2023-03-23T03:59:31;6.83;;;1.87;;
19535;SDS011;9913;51.168;4.124;2023-03-23T04:02:19;2.60;;;1.40;;
19535;SDS011;9913;51.168;4.124;2023-03-23T04:04:50;7.20;;;1.93;;
19535;SDS011;9913;51.168;4.124;2023-03-23T04:07:18;3.80;;;1.40;;
19535;SDS011;9913;51.168;4.124;2023-03-23T04:09:48;5.87;;;1.87;;
19535;SDS011;9913;51.168;4.124;2023-03-23T04:12:19;5.23;;;1.77;;
19535;SDS011;9913;51.168;4.124;2023-03-23T04:14:55;4.07;;;1.80;;
19535;SDS011;9913;51.168;4.124;2023-03-23T04:17:27;3.20;;;1.77;;
19535;SDS011;9913;51.168;4.124;2023-03-23T04:19:55;4.57;;;1.70;;
19535;SDS011;9913;51.168;4.124;2023-03-23T04:22:25;3.30;;;1.47;;
19535;SDS011;9913;51.168;4.124;2023-03-23T04:24:59;5.00;;;1.90;;
19535;SDS011;9913;51.168;4.124;2023-03-23T04:27:32;6.37;;;2.03;;
19535;SDS011;9913;51.168;4.124;2023-03-23T04:30:02;4.97;;;2.10;;
19535;SDS011;9913;51.168;4.124;2023-03-23T04:32:41;7.97;;;2.10;;
19535;SDS011;9913;51.168;4.124;2023-03-23T04:35:12;5.80;;;2.00;;
19535;SDS011;9913;51.168;4.124;2023-03-23T04:37:45;6.60;;;1.90;;
19535;SDS011;9913;51.168;4.124;2023-03-23T04:40:18;3.23;;;1.40;;
19535;SDS011;9913;51.168;4.124;2023-03-23T04:42:57;6.03;;;2.07;;
19535;SDS011;9913;51.168;4.124;2023-03-23T04:45:52;7.97;;;1.87;;
19535;SDS011;9913;51.168;4.124;2023-03-23T04:48:22;6.27;;;2.20;;
19535;SDS011;9913;51.168;4.124;2023-03-23T04:51:00;7.07;;;1.73;;
19535;SDS011;9913;51.168;4.124;2023-03-23T04:53:30;6.00;;;1.77;;
19535;SDS011;9913;51.168;4.124;2023-03-23T04:56:00;6.97;;;1.93;;
19535;SDS011;9913;51.168;4.124;2023-03-23T04:58:33;5.57;;;1.80;;
19535;SDS011;9913;51.168;4.124;2023-03-23T05:01:11;4.80;;;1.80;;
19535;SDS011;9913;51.168;4.124;2023-03-23T05:03:49;4.50;;;1.70;;
19535;SDS011;9913;51.168;4.124;2023-03-23T05:06:17;5.20;;;1.70;;
19535;SDS011;9913;51.168;4.124;2023-03-23T05:08:45;7.30;;;2.10;;
19535;SDS011;9913;51.168;4.124;2023-03-23T05:11:14;5.80;;;1.77;;
19535;SDS011;9913;51.168;4.124;2023-03-23T05:13:42;6.90;;;3.20;;
19535;SDS011;9913;51.168;4.124;2023-03-23T05:16:11;4.57;;;1.87;;
19535;SDS011;9913;51.168;4.124;2023-03-23T05:18:40;4.93;;;1.80;;
19535;SDS011;9913;51.168;4.124;2023-03-23T05:21:10;7.63;;;1.73;;
19535;SDS011;9913;51.168;4.124;2023-03-23T05:23:42;7.37;;;2.03;;
19535;SDS011;9913;51.168;4.124;2023-03-23T05:26:17;4.00;;;1.40;;
19535;SDS011;9913;51.168;4.124;2023-03-23T05:28:45;3.40;;;1.50;;
19535;SDS011;9913;51.168;4.124;2023-03-23T05:31:23;6.87;;;2.27;;
19535;SDS011;9913;51.168;4.124;2023-03-23T05:33:51;5.77;;;1.50;;
19535;SDS011;9913;51.168;4.124;2023-03-23T05:36:29;4.23;;;1.60;;
19535;SDS011;9913;51.168;4.124;2023-03-23T05:39:29;3.43;;;1.90;;
19535;SDS011;9913;51.168;4.124;2023-03-23T05:42:23;6.23;;;2.23;;
19535;SDS011;9913;51.168;4.124;2023-03-23T05:45:09;5.40;;;1.77;;
19535;SDS011;9913;51.168;4.124;2023-03-23T05:47:38;9.53;;;2.00;;
19535;SDS011;9913;51.168;4.124;2023-03-23T05:50:09;5.80;;;1.60;;
19535;SDS011;9913;51.168;4.124;2023-03-23T05:52:39;8.03;;;2.00;;
19535;SDS011;9913;51.168;4.124;2023-03-23T05:55:10;5.73;;;1.80;;
19535;SDS011;9913;51.168;4.124;2023-03-23T05:57:41;6.40;;;2.10;;
19535;SDS011;9913;51.168;4.124;2023-03-23T06:00:22;10.83;;;2.07;;
19535;SDS011;9913;51.168;4.124;2023-03-23T06:02:58;9.00;;;2.63;;
19535;SDS011;9913;51.168;4.124;2023-03-23T06:05:46;10.77;;;3.67;;
19535;SDS011;9913;51.168;4.124;2023-03-23T06:08:17;9.37;;;2.17;;
19535;SDS011;9913;51.168;4.124;2023-03-23T06:10:44;6.60;;;2.53;;
19535;SDS011;9913;51.168;4.124;2023-03-23T06:13:14;6.27;;;1.37;;
19535;SDS011;9913;51.168;4.124;2023-03-23T06:15:47;4.93;;;1.17;;
19535;SDS011;9913;51.168;4.124;2023-03-23T06:18:19;3.50;;;1.40;;
19535;SDS011;9913;51.168;4.124;2023-03-23T06:21:08;5.40;;;1.47;;
19535;SDS011;9913;51.168;4.124;2023-03-23T06:24:04;3.53;;;1.30;;
19535;SDS011;9913;51.168;4.124;2023-03-23T06:26:35;2.27;;;1.20;;
19535;SDS011;9913;51.168;4.124;2023-03-23T06:29:08;4.13;;;1.50;;
19535;SDS011;9913;51.168;4.124;2023-03-23T06:31:44;5.60;;;1.50;;
19535;SDS011;9913;51.168;4.124;2023-03-23T06:34:13;2.37;;;1.50;;
19535;SDS011;9913;51.168;4.124;2023-03-23T06:37:08;3.77;;;1.30;;
19535;SDS011;9913;51.168;4.124;2023-03-23T06:39:44;5.47;;;1.50;;
19535;SDS011;9913;51.168;4.124;2023-03-23T06:42:28;5.00;;;1.37;;
19535;SDS011;9913;51.168;4.124;2023-03-23T06:45:32;3.83;;;1.40;;
19535;SDS011;9913;51.168;4.124;2023-03-23T06:48:34;3.90;;;1.53;;
19535;SDS011;9913;51.168;4.124;2023-03-23T06:51:04;4.67;;;1.40;;
19535;SDS011;9913;51.168;4.124;2023-03-23T06:53:33;4.37;;;1.20;;
19535;SDS011;9913;51.168;4.124;2023-03-23T06:56:12;3.87;;;1.63;;
19535;SDS011;9913;51.168;4.124;2023-03-23T06:58:41;6.33;;;1.30;;
19535;SDS011;9913;51.168;4.124;2023-03-23T07:01:15;5.57;;;1.63;;
19535;SDS011;9913;51.168;4.124;2023-03-23T07:03:50;5.77;;;1.50;;
19535;SDS011;9913;51.168;4.124;2023-03-23T07:06:27;4.20;;;1.23;;
19535;SDS011;9913;51.168;4.124;2023-03-23T07:08:58;4.27;;;1.27;;
19535;SDS011;9913;51.168;4.124;2023-03-23T07:11:27;2.50;;;1.10;;
19535;SDS011;9913;51.168;4.124;2023-03-23T07:14:03;3.07;;;1.13;;
19535;SDS011;9913;51.168;4.124;2023-03-23T07:16:32;4.03;;;1.60;;
19535;SDS011;9913;51.168;4.124;2023-03-23T07:19:00;4.07;;;1.53;;
19535;SDS011;9913;51.168;4.124;2023-03-23T07:21:28;3.83;;;1.73;;
19535;SDS011;9913;51.168;4.124;2023-03-23T07:23:55;3.73;;;1.27;;
19535;SDS011;9913;51.168;4.124;2023-03-23T07:26:37;3.77;;;1.47;;
19535;SDS011;9913;51.168;4.124;2023-03-23T07:29:05;3.30;;;1.30;;
19535;SDS011;9913;51.168;4.124;2023-03-23T07:31:38;4.87;;;1.50;;
19535;SDS011;9913;51.168;4.124;2023-03-23T07:34:05;6.37;;;1.60;;
19535;SDS011;9913;51.168;4.124;2023-03-23T07:37:01;3.13;;;1.17;;
19535;SDS011;9913;51.168;4.124;2023-03-23T07:39:32;8.30;;;1.23;;
19535;SDS011;9913;51.168;4.124;2023-03-23T07:42:00;6.80;;;2.77;;
19535;SDS011;9913;51.168;4.124;2023-03-23T07:44:39;4.87;;;1.60;;
19535;SDS011;9913;51.168;4.124;2023-03-23T07:47:11;3.53;;;1.47;;
19535;SDS011;9913;51.168;4.124;2023-03-23T07:49:39;4.50;;;1.27;;
19535;SDS011;9913;51.168;4.124;2023-03-23T07:52:22;5.90;;;1.23;;
19535;SDS011;9913;51.168;4.124;2023-03-23T07:54:51;6.33;;;1.33;;
19535;SDS011;9913;51.168;4.124;2023-03-23T07:57:47;3.23;;;1.47;;
19535;SDS011;9913;51.168;4.124;2023-03-23T08:00:16;5.93;;;1.50;;
19535;SDS011;9913;51.168;4.124;2023-03-23T08:02:48;3.60;;;1.40;;
19535;SDS011;9913;51.168;4.124;2023-03-23T08:05:25;6.03;;;1.83;;
19535;SDS011;9913;51.168;4.124;2023-03-23T08:08:05;11.47;;;2.67;;
19535;SDS011;9913;51.168;4.124;2023-03-23T08:10:50;7.77;;;2.20;;
19535;SDS011;9913;51.168;4.124;2023-03-23T08:13:36;6.63;;;1.87;;
19535;SDS011;9913;51.168;4.124;2023-03-23T08:16:23;8.17;;;2.23;;
19535;SDS011;9913;51.168;4.124;2023-03-23T08:19:15;6.70;;;1.67;;
19535;SDS011;9913;51.168;4.124;2023-03-23T08:22:18;7.43;;;1.87;;
19535;SDS011;9913;51.168;4.124;2023-03-23T08:25:17;5.13;;;1.67;;
19535;SDS011;9913;51.168;4.124;2023-03-23T08:28:21;4.63;;;2.00;;
19535;SDS011;9913;51.168;4.124;2023-03-23T08:31:14;7.43;;;2.20;;
19535;SDS011;9913;51.168;4.124;2023-03-23T08:34:01;9.80;;;2.03;;
19535;SDS011;9913;51.168;4.124;2023-03-23T08:36:50;7.37;;;2.13;;
19535;SDS011;9913;51.168;4.124;2023-03-23T08:39:33;6.87;;;2.40;;
19535;SDS011;9913;51.168;4.124;2023-03-23T08:42:30;5.13;;;1.40;;
19535;SDS011;9913;51.168;4.124;2023-03-23T08:45:29;8.57;;;1.83;;
19535;SDS011;9913;51.168;4.124;2023-03-23T08:48:08;4.30;;;1.97;;
19535;SDS011;9913;51.168;4.124;2023-03-23T08:50:56;5.30;;;1.60;;
19535;SDS011;9913;51.168;4.124;2023-03-23T08:53:46;5.30;;;1.70;;
19535;SDS011;9913;51.168;4.124;2023-03-23T08:56:16;8.17;;;2.40;;
19535;SDS011;9913;51.168;4.124;2023-03-23T08:59:09;5.63;;;1.90;;
19535;SDS011;9913;51.168;4.124;2023-03-23T09:01:49;7.47;;;1.97;;
19535;SDS011;9913;51.168;4.124;2023-03-23T09:04:35;4.50;;;1.83;;
19535;SDS011;9913;51.168;4.124;2023-03-23T09:07:20;4.87;;;1.63;;
19535;SDS011;9913;51.168;4.124;2023-03-23T09:09:49;5.67;;;2.10;;
19535;SDS011;9913;51.168;4.124;2023-03-23T09:12:16;4.40;;;1.77;;
19535;SDS011;9913;51.168;4.124;2023-03-23T09:14:43;8.17;;;2.00;;
19535;SDS011;9913;51.168;4.124;2023-03-23T09:17:11;7.23;;;2.07;;
19535;SDS011;9913;51.168;4.124;2023-03-23T09:19:39;6.50;;;2.33;;
19535;SDS011;9913;51.168;4.124;2023-03-23T09:22:07;7.23;;;1.80;;
19535;SDS011;9913;51.168;4.124;2023-03-23T09:24:34;8.67;;;1.93;;
19535;SDS011;9913;51.168;4.124;2023-03-23T09:27:02;6.23;;;1.80;;
19535;SDS011;9913;51.168;4.124;2023-03-23T09:29:30;12.10;;;2.13;;
19535;SDS011;9913;51.168;4.124;2023-03-23T09:31:57;7.17;;;1.97;;
19535;SDS011;9913;51.168;4.124;2023-03-23T09:34:25;5.93;;;2.13;;
19535;SDS011;9913;51.168;4.124;2023-03-23T09:36:54;6.27;;;1.70;;
19535;SDS011;9913;51.168;4.124;2023-03-23T09:39:22;3.93;;;2.00;;
19535;SDS011;9913;51.168;4.124;2023-03-23T09:41:59;5.47;;;1.53;;
19535;SDS011;9913;51.168;4.124;2023-03-23T09:44:42;5.33;;;1.43;;
19535;SDS011;9913;51.168;4.124;2023-03-23T09:47:23;5.37;;;1.20;;
19535;SDS011;9913;51.168;4.124;2023-03-23T09:49:59;5.67;;;1.07;;
19535;SDS011;9913;51.168;4.124;2023-03-23T09:52:34;4.20;;;1.27;;
19535;SDS011;9913;51.168;4.124;2023-03-23T09:55:07;5.93;;;1.17;;
19535;SDS011;9913;51.168;4.124;2023-03-23T09:57:40;2.70;;;1.17;;
19535;SDS011;9913;51.168;4.124;2023-03-23T10:00:13;2.47;;;1.50;;
19535;SDS011;9913;51.168;4.124;2023-03-23T10:02:46;2.30;;;1.23;;
19535;SDS011;9913;51.168;4.124;2023-03-23T10:08:08;3.13;;;1.20;;
19535;SDS011;9913;51.168;4.124;2023-03-23T10:10:46;3.50;;;1.10;;
19535;SDS011;9913;51.168;4.124;2023-03-23T10:13:28;3.53;;;1.27;;
19535;SDS011;9913;51.168;4.124;2023-03-23T10:16:08;2.50;;;1.47;;
19535;SDS011;9913;51.168;4.124;2023-03-23T10:18:38;4.07;;;1.10;;
19535;SDS011;9913;51.168;4.124;2023-03-23T10:21:11;3.77;;;1.03;;
19535;SDS011;9913;51.168;4.124;2023-03-23T10:23:46;3.90;;;1.27;;
19535;SDS011;9913;51.168;4.124;2023-03-23T10:26:24;4.57;;;1.13;;
19535;SDS011;9913;51.168;4.124;2023-03-23T10:29:01;7.80;;;1.40;;
19535;SDS011;9913;51.168;4.124;2023-03-23T10:31:39;3.63;;;1.10;;
19535;SDS011;9913;51.168;4.124;2023-03-23T10:34:09;5.60;;;1.30;;
19535;SDS011;9913;51.168;4.124;2023-03-23T10:36:49;5.37;;;1.63;;
19535;SDS011;9913;51.168;4.124;2023-03-23T10:39:20;5.90;;;1.63;;
19535;SDS011;9913;51.168;4.124;2023-03-23T10:41:50;6.40;;;1.17;;
19535;SDS011;9913;51.168;4.124;2023-03-23T10:44:20;4.63;;;1.60;;
19535;SDS011;9913;51.168;4.124;2023-03-23T10:46:49;6.10;;;1.40;;
19535;SDS011;9913;51.168;4.124;2023-03-23T10:49:23;4.93;;;1.53;;
19535;SDS011;9913;51.168;4.124;2023-03-23T10:51:56;6.00;;;1.63;;
19535;SDS011;9913;51.168;4.124;2023-03-23T10:54:27;7.90;;;1.60;;
19535;SDS011;9913;51.168;4.124;2023-03-23T10:57:00;6.53;;;1.80;;
19535;SDS011;9913;51.168;4.124;2023-03-23T10:59:40;5.03;;;1.57;;
19535;SDS011;9913;51.168;4.124;2023-03-23T11:02:10;5.97;;;1.93;;
19535;SDS011;9913;51.168;4.124;2023-03-23T11:04:45;4.63;;;1.70;;
19535;SDS011;9913;51.168;4.124;2023-03-23T11:07:18;5.60;;;2.13;;
19535;SDS011;9913;51.168;4.124;2023-03-23T11:09:51;11.10;;;2.80;;
19535;SDS011;9913;51.168;4.124;2023-03-23T11:12:20;5.47;;;2.47;;
19535;SDS011;9913;51.168;4.124;2023-03-23T11:14:49;10.00;;;2.47;;
19535;SDS011;9913;51.168;4.124;2023-03-23T11:17:21;7.63;;;2.10;;
19535;SDS011;9913;51.168;4.124;2023-03-23T11:19:50;5.35;;;2.28;;
19535;SDS011;9913;51.168;4.124;2023-03-23T11:22:22;4.25;;;1.63;;
19535;SDS011;9913;51.168;4.124;2023-03-23T11:24:53;7.20;;;2.20;;
19535;SDS011;9913;51.168;4.124;2023-03-23T11:27:21;5.13;;;2.20;;
19535;SDS011;9913;51.168;4.124;2023-03-23T11:29:52;5.13;;;2.20;;
19535;SDS011;9913;51.168;4.124;2023-03-23T11:32:22;8.23;;;2.90;;
19535;SDS011;9913;51.168;4.124;2023-03-23T11:34:54;9.57;;;3.13;;
19535;SDS011;9913;51.168;4.124;2023-03-23T11:37:27;5.50;;;2.70;;
19535;SDS011;9913;51.168;4.124;2023-03-23T11:39:57;6.57;;;2.30;;
19535;SDS011;9913;51.168;4.124;2023-03-23T11:42:27;9.43;;;2.43;;
19535;SDS011;9913;51.168;4.124;2023-03-23T11:45:14;6.73;;;2.10;;
19535;SDS011;9913;51.168;4.124;2023-03-23T11:47:49;6.80;;;2.27;;
19535;SDS011;9913;51.168;4.124;2023-03-23T11:50:28;8.57;;;2.53;;
19535;SDS011;9913;51.168;4.124;2023-03-23T11:53:00;6.57;;;2.30;;
19535;SDS011;9913;51.168;4.124;2023-03-23T11:55:31;10.20;;;2.50;;
19535;SDS011;9913;51.168;4.124;2023-03-23T11:58:06;9.00;;;2.50;;
19535;SDS011;9913;51.168;4.124;2023-03-23T12:00:41;5.47;;;2.13;;
19535;SDS011;9913;51.168;4.124;2023-03-23T12:03:24;5.33;;;2.30;;
19535;SDS011;9913;51.168;4.124;2023-03-23T12:06:12;6.37;;;2.03;;
19535;SDS011;9913;51.168;4.124;2023-03-23T12:08:51;7.00;;;2.20;;
19535;SDS011;9913;51.168;4.124;2023-03-23T12:11:27;5.97;;;2.27;;
19535;SDS011;9913;51.168;4.124;2023-03-23T12:14:03;5.40;;;1.93;;
19535;SDS011;9913;51.168;4.124;2023-03-23T12:16:45;7.90;;;2.10;;
19535;SDS011;9913;51.168;4.124;2023-03-23T12:19:25;5.53;;;1.80;;
19535;SDS011;9913;51.168;4.124;2023-03-23T12:22:00;8.13;;;3.00;;
19535;SDS011;9913;51.168;4.124;2023-03-23T12:24:39;6.33;;;2.17;;
19535;SDS011;9913;51.168;4.124;2023-03-23T12:27:18;7.30;;;2.07;;
19535;SDS011;9913;51.168;4.124;2023-03-23T12:29:55;7.67;;;2.87;;
19535;SDS011;9913;51.168;4.124;2023-03-23T12:32:37;7.10;;;1.70;;
19535;SDS011;9913;51.168;4.124;2023-03-23T12:35:21;7.07;;;2.17;;
19535;SDS011;9913;51.168;4.124;2023-03-23T12:38:01;4.93;;;2.30;;
19535;SDS011;9913;51.168;4.124;2023-03-23T12:40:47;7.23;;;2.20;;
19535;SDS011;9913;51.168;4.124;2023-03-23T12:43:24;8.20;;;2.33;;
19535;SDS011;9913;51.168;4.124;2023-03-23T12:46:02;5.43;;;2.00;;
19535;SDS011;9913;51.168;4.124;2023-03-23T12:48:40;6.20;;;2.03;;
19535;SDS011;9913;51.168;4.124;2023-03-23T12:51:11;6.70;;;2.72;;
19535;SDS011;9913;51.168;4.124;2023-03-23T12:53:44;3.83;;;1.75;;
19535;SDS011;9913;51.168;4.124;2023-03-23T12:56:17;6.13;;;2.00;;
19535;SDS011;9913;51.168;4.124;2023-03-23T12:58:50;7.40;;;2.17;;
19535;SDS011;9913;51.168;4.124;2023-03-23T13:01:27;6.23;;;2.10;;
19535;SDS011;9913;51.168;4.124;2023-03-23T13:04:01;8.15;;;2.40;;
19535;SDS011;9913;51.168;4.124;2023-03-23T13:06:34;8.20;;;2.20;;
19535;SDS011;9913;51.168;4.124;2023-03-23T13:09:04;10.37;;;2.40;;
19535;SDS011;9913;51.168;4.124;2023-03-23T13:11:38;9.03;;;2.40;;
19535;SDS011;9913;51.168;4.124;2023-03-23T13:14:11;5.50;;;2.50;;
19535;SDS011;9913;51.168;4.124;2023-03-23T13:16:49;9.47;;;2.20;;
19535;SDS011;9913;51.168;4.124;2023-03-23T13:19:22;7.83;;;2.57;;
19535;SDS011;9913;51.168;4.124;2023-03-23T13:21:55;11.70;;;2.50;;
19535;SDS011;9913;51.168;4.124;2023-03-23T13:24:28;6.30;;;2.23;;
19535;SDS011;9913;51.168;4.124;2023-03-23T13:26:57;8.40;;;2.10;;
19535;SDS011;9913;51.168;4.124;2023-03-23T13:29:26;16.83;;;3.57;;
19535;SDS011;9913;51.168;4.124;2023-03-23T13:32:06;8.10;;;2.33;;
19535;SDS011;9913;51.168;4.124;2023-03-23T13:34:42;6.47;;;1.85;;
19535;SDS011;9913;51.168;4.124;2023-03-23T13:37:10;7.85;;;2.10;;
19535;SDS011;9913;51.168;4.124;2023-03-23T13:39:48;9.60;;;2.30;;
19535;SDS011;9913;51.168;4.124;2023-03-23T13:42:19;8.25;;;2.33;;
19535;SDS011;9913;51.168;4.124;2023-03-23T13:44:55;10.43;;;2.13;;
19535;SDS011;9913;51.168;4.124;2023-03-23T13:47:35;3.45;;;1.90;;
19535;SDS011;9913;51.168;4.124;2023-03-23T13:50:11;9.57;;;2.60;;
19535;SDS011;9913;51.168;4.124;2023-03-23T13:52:52;10.23;;;2.23;;
19535;SDS011;9913;51.168;4.124;2023-03-23T13:55:27;5.72;;;2.40;;
19535;SDS011;9913;51.168;4.124;2023-03-23T13:58:09;6.60;;;2.20;;
19535;SDS011;9913;51.168;4.124;2023-03-23T14:00:45;4.67;;;2.03;;
19535;SDS011;9913;51.168;4.124;2023-03-23T14:03:16;8.63;;;2.25;;
19535;SDS011;9913;51.168;4.124;2023-03-23T14:06:00;8.27;;;1.87;;
19535;SDS011;9913;51.168;4.124;2023-03-23T14:08:39;4.03;;;1.67;;
19535;SDS011;9913;51.168;4.124;2023-03-23T14:11:15;4.80;;;1.38;;
19535;SDS011;9913;51.168;4.124;2023-03-23T14:13:47;4.80;;;1.48;;
19535;SDS011;9913;51.168;4.124;2023-03-23T14:16:24;6.50;;;2.00;;
19535;SDS011;9913;51.168;4.124;2023-03-23T14:18:54;7.57;;;1.50;;
19535;SDS011;9913;51.168;4.124;2023-03-23T14:21:33;6.25;;;1.25;;
19535;SDS011;9913;51.168;4.124;2023-03-23T14:24:05;6.07;;;1.85;;
19535;SDS011;9913;51.168;4.124;2023-03-23T14:26:36;4.53;;;1.67;;
19535;SDS011;9913;51.168;4.124;2023-03-23T14:29:04;5.17;;;1.63;;
19535;SDS011;9913;51.168;4.124;2023-03-23T14:31:32;5.85;;;1.50;;
19535;SDS011;9913;51.168;4.124;2023-03-23T14:34:03;5.15;;;1.50;;
19535;SDS011;9913;51.168;4.124;2023-03-23T14:36:34;6.53;;;1.50;;
19535;SDS011;9913;51.168;4.124;2023-03-23T14:39:04;6.97;;;1.55;;
19535;SDS011;9913;51.168;4.124;2023-03-23T14:41:34;9.13;;;1.80;;
19535;SDS011;9913;51.168;4.124;2023-03-23T14:44:03;5.72;;;1.90;;
19535;SDS011;9913;51.168;4.124;2023-03-23T14:46:33;6.85;;;1.88;;
19535;SDS011;9913;51.168;4.124;2023-03-23T14:49:01;6.00;;;2.20;;
19535;SDS011;9913;51.168;4.124;2023-03-23T14:51:29;6.93;;;1.80;;
19535;SDS011;9913;51.168;4.124;2023-03-23T14:53:59;5.90;;;2.20;;
19535;SDS011;9913;51.168;4.124;2023-03-23T14:56:32;3.30;;;1.50;;
19535;SDS011;9913;51.168;4.124;2023-03-23T14:59:02;5.38;;;2.13;;
19535;SDS011;9913;51.168;4.124;2023-03-23T15:01:31;3.88;;;1.75;;
19535;SDS011;9913;51.168;4.124;2023-03-23T15:04:03;5.10;;;2.03;;
19535;SDS011;9913;51.168;4.124;2023-03-23T15:06:33;7.68;;;2.13;;
19535;SDS011;9913;51.168;4.124;2023-03-23T15:09:04;7.03;;;2.22;;
19535;SDS011;9913;51.168;4.124;2023-03-23T15:11:34;8.20;;;2.13;;
19535;SDS011;9913;51.168;4.124;2023-03-23T15:14:07;7.65;;;2.25;;
19535;SDS011;9913;51.168;4.124;2023-03-23T15:16:40;7.85;;;2.22;;
19535;SDS011;9913;51.168;4.124;2023-03-23T15:19:16;5.10;;;1.92;;
19535;SDS011;9913;51.168;4.124;2023-03-23T15:21:48;4.28;;;1.70;;
19535;SDS011;9913;51.168;4.124;2023-03-23T15:24:26;7.85;;;1.77;;
19535;SDS011;9913;51.168;4.124;2023-03-23T15:27:03;8.57;;;2.50;;
19535;SDS011;9913;51.168;4.124;2023-03-23T15:29:51;7.82;;;2.00;;
19535;SDS011;9913;51.168;4.124;2023-03-23T15:32:20;8.73;;;3.05;;
19535;SDS011;9913;51.168;4.124;2023-03-23T15:34:52;6.03;;;2.13;;
19535;SDS011;9913;51.168;4.124;2023-03-23T15:37:21;4.97;;;2.03;;
19535;SDS011;9913;51.168;4.124;2023-03-23T15:39:55;9.70;;;2.38;;
19535;SDS011;9913;51.168;4.124;2023-03-23T15:42:25;9.68;;;2.50;;
19535;SDS011;9913;51.168;4.124;2023-03-23T15:44:55;6.15;;;2.45;;
19535;SDS011;9913;51.168;4.124;2023-03-23T15:47:36;8.83;;;2.60;;
19535;SDS011;9913;51.168;4.124;2023-03-23T15:50:11;5.88;;;2.30;;
19535;SDS011;9913;51.168;4.124;2023-03-23T15:52:40;7.88;;;2.63;;